CDT,Max TemperatureF,Mean TemperatureF,Min TemperatureF,Max Dew PointF,MeanDew PointF,Min DewpointF,Max Humidity, Mean Humidity, Min Humidity, Max Sea Level PressureIn, Mean Sea Level PressureIn, Min Sea Level PressureIn, Max VisibilityMiles, Mean VisibilityMiles, Min VisibilityMiles, Max Wind SpeedMPH, Mean Wind SpeedMPH, Max Gust SpeedMPH,PrecipitationIn, CloudCover, Events, WindDirDegrees
2013-8-1,91,78,64,70,65,61,100,67,43,30.24,30.07,29.89,10,10,10,26,10,41,0.00,0,Rain,165
2013-8-2,89,76,62,72,67,63,100,77,46,30.03,29.95,29.93,10,10,10,22,13,30,0.00,1,,106
2013-8-3,71,70,68,72,68,64,100,96,83,30.20,30.13,30.03,10,6,0,20,11,25,0.00,8,Fog-Rain,72
2013-8-4,84,75,66,70,69,66,100,88,62,30.20,30.11,30.04,10,8,1,14,8,18,0.00,6,Rain,101
2013-8-5,87,76,64,75,70,64,100,88,62,30.08,30.00,29.95,10,8,2,20,8,26,0.00,3,Rain,174
2013-8-6,84,73,62,73,69,63,100,83,58,30.02,29.94,29.91,10,9,1,13,6,22,0.00,0,,138
2013-8-7,78,69,60,70,63,57,100,77,54,30.10,30.05,29.98,10,10,10,30,8,39,0.00,2,Rain,56
2013-8-8,71,66,62,66,63,59,100,88,64,30.14,30.08,30.01,10,9,5,12,6,,0.00,7,Rain,56
2013-8-9,78,68,59,64,60,59,100,77,51,30.25,30.18,30.12,10,8,0,13,4,16,0.00,2,Fog,127
2013-8-10,80,66,53,63,60,54,100,75,51,30.26,30.22,30.13,10,10,7,20,9,26,0.00,1,,185
2013-8-11,84,73,62,70,65,63,100,81,55,30.18,30.12,30.05,10,10,7,14,10,18,0.00,2,,153
2013-8-12,84,73,62,66,64,63,100,79,51,30.16,30.12,30.08,10,9,0,14,8,17,0.00,3,Fog,77
2013-8-13,80,70,60,68,63,61,100,79,54,30.22,30.18,30.14,10,10,10,20,7,21,0.00,2,Rain,93
2013-8-14,80,71,62,66,63,61,100,85,51,30.23,30.16,30.07,10,10,7,13,9,21,0.00,5,,175
2013-8-15,80,66,53,66,60,52,100,81,39,30.16,30.10,30.04,10,10,3,18,7,25,0.00,3,Rain,182
2013-8-16,80,70,60,68,64,61,100,88,61,30.19,30.14,30.11,10,7,0,12,6,,0.00,4,Fog,85
2013-8-17,77,70,64,70,67,64,100,94,78,30.18,30.13,30.09,10,8,1,17,11,24,0.00,7,,141
2013-8-18,80,71,62,68,65,63,100,87,61,30.14,30.10,30.04,10,8,3,20,13,24,0.00,5,,151
2013-8-19,89,76,62,68,66,63,100,77,49,30.12,30.05,30.01,10,9,4,18,9,21,0.00,0,,160
2013-8-20,93,78,62,66,64,61,100,67,36,30.04,30.02,29.97,10,10,7,22,10,28,0.00,0,,179
2013-8-21,96,82,68,64,63,61,83,57,30,30.02,30.00,29.95,10,10,10,22,13,29,0.00,1,,169
2013-8-22,89,74,60,68,62,59,94,64,38,30.10,30.05,30.02,10,10,10,18,9,20,0.00,0,,49
2013-8-23,91,78,64,68,64,59,100,67,40,30.09,30.03,29.94,10,10,10,16,7,28,0.00,1,,144
2013-8-24,96,80,64,63,60,57,88,52,27,30.08,30.03,29.99,10,10,10,29,16,43,0.00,0,,171
2013-8-25,96,84,71,63,61,57,73,49,27,30.14,30.11,30.07,10,10,10,26,18,36,0.00,0,,179
2013-8-26,98,84,71,63,61,57,73,48,25,30.14,30.10,30.04,10,10,10,25,17,32,0.00,0,,183
2013-8-27,98,82,66,63,59,54,78,49,23,30.07,30.04,29.99,10,10,10,20,13,28,0.00,0,,184
2013-8-28,96,78,60,66,60,55,94,54,26,30.08,30.05,30.01,10,10,10,16,9,40,0.00,0,,164
2013-8-29,100,81,62,66,58,52,94,50,20,30.07,30.04,29.99,10,10,10,14,8,18,0.00,0,,177
2013-8-30,100,80,60,70,57,54,88,48,21,30.07,30.02,29.96,10,10,7,16,6,25,0.00,0,,150
2013-8-31,96,81,66,70,63,52,94,61,28,30.08,29.98,29.90,10,10,7,17,9,28,0.00,1,Rain,173